Time;durP1;ratioP1;P1;durP2;ratioP2;P2;SDS_P1;SDS_P2;PMS_P1;PMS_P2;Temp;Humidity;BMP_temperature;BMP_pressure;BME280_temperature;BME280_humidity;BME280_pressure;Samples;Min_cycle;Max_cycle;Signal;HPM_P1;HPM_P2
2024/01/28 00:02:16;;;;;;;24.13;21.95;;;;;;;;;;5079768;28;20223;-80
2024/01/28 00:04:43;;;;;;;23.58;21.92;;;;;;;;;;5083111;28;20203;-81
2024/01/28 00:07:10;;;;;;;24.67;22.83;;;;;;;;;;5071583;28;20300;-81
2024/01/28 00:09:37;;;;;;;25.35;22.77;;;;;;;;;;5072477;28;20574;-82
2024/01/28 00:12:05;;;;;;;22.77;21.20;;;;;;;;;;5063253;28;20274;-81
2024/01/28 00:14:32;;;;;;;25.58;22.95;;;;;;;;;;5063312;28;20929;-81
2024/01/28 00:17:01;;;;;;;25.25;22.65;;;;;;;;;;5061160;28;20231;-81
2024/01/28 00:19:28;;;;;;;24.42;22.40;;;;;;;;;;5070548;28;20250;-80
2024/01/28 00:21:55;;;;;;;23.90;21.85;;;;;;;;;;5080831;28;20211;-80
2024/01/28 00:24:23;;;;;;;23.30;21.65;;;;;;;;;;5081279;28;20290;-82
2024/01/28 00:26:51;;;;;;;23.38;21.48;;;;;;;;;;5075016;28;20214;-79
2024/01/28 00:29:19;;;;;;;22.83;21.15;;;;;;;;;;5062038;28;20231;-81
2024/01/28 00:31:46;;;;;;;23.90;21.48;;;;;;;;;;5062305;28;20205;-81
2024/01/28 00:34:15;;;;;;;22.23;20.67;;;;;;;;;;5068453;28;20216;-84
2024/01/28 00:36:42;;;;;;;22.35;20.85;;;;;;;;;;5063633;28;20231;-82
2024/01/28 00:39:13;;;;;;;22.90;21.25;;;;;;;;;;5061883;28;20224;-81
2024/01/28 00:41:40;;;;;;;22.33;20.73;;;;;;;;;;5061354;28;20223;-80
2024/01/28 00:44:07;;;;;;;23.83;21.63;;;;;;;;;;5060700;28;20205;-80
2024/01/28 00:46:34;;;;;;;21.98;20.40;;;;;;;;;;5059178;28;20208;-82
2024/01/28 00:49:02;;;;;;;22.63;20.70;;;;;;;;;;5060562;28;20224;-81
2024/01/28 00:51:31;;;;;;;22.65;20.80;;;;;;;;;;5065146;28;20224;-80
2024/01/28 00:53:58;;;;;;;22.95;21.25;;;;;;;;;;5080681;28;20208;-80
2024/01/28 00:56:25;;;;;;;22.52;20.45;;;;;;;;;;5079816;28;20598;-82
2024/01/28 00:58:52;;;;;;;22.52;20.70;;;;;;;;;;5075625;28;20227;-83
2024/01/28 01:01:19;;;;;;;22.58;20.88;;;;;;;;;;5070750;28;20619;-80
2024/01/28 01:03:47;;;;;;;23.70;21.90;;;;;;;;;;5081060;28;20697;-83
2024/01/28 01:06:14;;;;;;;24.55;22.40;;;;;;;;;;5080111;28;20567;-81
2024/01/28 01:08:42;;;;;;;24.17;22.20;;;;;;;;;;5080251;28;20203;-82
2024/01/28 01:11:09;;;;;;;24.05;22.10;;;;;;;;;;5059631;28;20209;-83
2024/01/28 01:13:36;;;;;;;23.90;22.30;;;;;;;;;;5060031;28;20205;-83
2024/01/28 01:16:03;;;;;;;26.13;23.65;;;;;;;;;;5059852;28;20291;-82
2024/01/28 01:18:30;;;;;;;25.85;23.77;;;;;;;;;;5060149;28;20212;-82
2024/01/28 01:20:57;;;;;;;25.67;23.73;;;;;;;;;;5060591;28;20613;-81
2024/01/28 01:23:24;;;;;;;24.80;22.90;;;;;;;;;;5060018;28;20261;-81
2024/01/28 01:25:53;;;;;;;24.63;22.48;;;;;;;;;;5058440;28;20200;-81
2024/01/28 01:28:20;;;;;;;25.88;23.98;;;;;;;;;;5059681;28;20209;-83
2024/01/28 01:30:47;;;;;;;24.45;22.38;;;;;;;;;;5059847;28;20220;-83
2024/01/28 01:33:14;;;;;;;23.08;21.58;;;;;;;;;;5060166;28;20671;-82
2024/01/28 01:35:41;;;;;;;22.92;21.13;;;;;;;;;;5060363;28;20281;-80
2024/01/28 01:38:08;;;;;;;24.48;22.50;;;;;;;;;;5059984;28;20230;-84
2024/01/28 01:40:35;;;;;;;24.55;22.10;;;;;;;;;;5060851;28;20711;-83
2024/01/28 01:43:08;;;;;;;23.92;21.98;;;;;;;;;;5068145;28;20224;-83
2024/01/28 01:45:37;;;;;;;24.05;21.90;;;;;;;;;;5062761;28;20203;-82
2024/01/28 01:48:04;;;;;;;22.65;20.77;;;;;;;;;;5061454;28;20192;-81
2024/01/28 01:50:32;;;;;;;23.15;21.70;;;;;;;;;;5061342;28;20267;-83
2024/01/28 01:52:59;;;;;;;23.08;21.55;;;;;;;;;;5061413;28;20232;-81
2024/01/28 01:55:26;;;;;;;22.60;20.70;;;;;;;;;;5061042;28;20278;-81
2024/01/28 01:57:53;;;;;;;23.67;21.55;;;;;;;;;;5059128;28;20212;-80
2024/01/28 02:00:22;;;;;;;21.90;20.15;;;;;;;;;;5060449;28;20251;-82
2024/01/28 02:02:49;;;;;;;27.52;21.65;;;;;;;;;;5059161;28;20242;-81
2024/01/28 02:05:16;;;;;;;23.98;21.73;;;;;;;;;;5059286;28;20204;-83
2024/01/28 02:07:43;;;;;;;22.00;19.65;;;;;;;;;;5058529;28;20262;-84
2024/01/28 02:10:11;;;;;;;23.77;21.05;;;;;;;;;;5058961;28;20223;-83
2024/01/28 02:12:38;;;;;;;21.77;20.10;;;;;;;;;;5058558;28;20269;-83
2024/01/28 02:15:05;;;;;;;22.10;20.70;;;;;;;;;;5058756;28;20315;-82
2024/01/28 02:17:34;;;;;;;22.63;21.15;;;;;;;;;;5058291;28;20273;-83
2024/01/28 02:20:01;;;;;;;21.63;20.23;;;;;;;;;;5057957;28;20357;-82
2024/01/28 02:22:28;;;;;;;20.88;19.48;;;;;;;;;;5057869;28;20246;-82
2024/01/28 02:24:57;;;;;;;21.92;20.20;;;;;;;;;;5058504;28;20211;-82
2024/01/28 02:27:24;;;;;;;22.75;20.70;;;;;;;;;;5057346;28;20303;-81
2024/01/28 02:29:51;;;;;;;21.25;19.50;;;;;;;;;;5057810;28;20262;-83
2024/01/28 02:32:18;;;;;;;20.88;19.20;;;;;;;;;;5058022;28;20282;-83
2024/01/28 02:34:45;;;;;;;21.30;19.75;;;;;;;;;;5057985;28;20246;-83
2024/01/28 02:37:13;;;;;;;21.73;20.13;;;;;;;;;;5057199;28;20227;-83
2024/01/28 02:39:40;;;;;;;22.02;20.50;;;;;;;;;;5058046;28;20270;-81
2024/01/28 02:42:09;;;;;;;23.00;20.85;;;;;;;;;;5057151;28;20258;-81
2024/01/28 02:44:36;;;;;;;19.88;18.65;;;;;;;;;;5057156;28;20200;-81
2024/01/28 02:47:03;;;;;;;21.23;19.67;;;;;;;;;;5056797;28;20667;-82
2024/01/28 02:49:30;;;;;;;22.00;20.20;;;;;;;;;;5057519;28;20224;-84
2024/01/28 02:51:57;;;;;;;20.80;19.60;;;;;;;;;;5062170;28;20204;-83
2024/01/28 02:54:24;;;;;;;20.77;19.17;;;;;;;;;;5062368;28;20212;-83
2024/01/28 02:56:52;;;;;;;20.20;18.77;;;;;;;;;;5061047;28;20224;-81
2024/01/28 02:59:20;;;;;;;20.33;19.23;;;;;;;;;;5061693;28;20220;-83
2024/01/28 03:01:48;;;;;;;19.52;18.40;;;;;;;;;;5061241;28;20239;-81
2024/01/28 03:04:15;;;;;;;20.17;19.00;;;;;;;;;;5060554;28;20299;-81
2024/01/28 03:06:42;;;;;;;20.15;18.75;;;;;;;;;;5061512;28;20257;-81
2024/01/28 03:09:09;;;;;;;19.52;18.40;;;;;;;;;;5060747;28;20270;-83
2024/01/28 03:11:37;;;;;;;20.00;18.80;;;;;;;;;;5060300;28;20192;-81
2024/01/28 03:14:04;;;;;;;21.55;19.75;;;;;;;;;;5060249;28;20204;-81
2024/01/28 03:16:32;;;;;;;19.83;18.33;;;;;;;;;;5060361;28;20227;-83
2024/01/28 03:19:00;;;;;;;20.67;19.20;;;;;;;;;;5060899;28;20220;-82
2024/01/28 03:21:27;;;;;;;19.90;18.60;;;;;;;;;;5060759;28;20675;-81
2024/01/28 03:23:54;;;;;;;20.52;18.73;;;;;;;;;;5060231;28;20220;-82
2024/01/28 03:26:21;;;;;;;20.60;18.58;;;;;;;;;;5059887;28;20641;-80
2024/01/28 03:28:48;;;;;;;20.45;18.88;;;;;;;;;;5060991;28;20232;-79
2024/01/28 03:31:15;;;;;;;20.30;19.00;;;;;;;;;;5059811;28;20196;-82
2024/01/28 03:33:44;;;;;;;19.23;17.98;;;;;;;;;;5060139;28;20265;-82
2024/01/28 03:36:12;;;;;;;19.42;18.35;;;;;;;;;;5058813;28;20319;-83
2024/01/28 03:38:39;;;;;;;19.65;18.40;;;;;;;;;;5060407;28;20342;-81
2024/01/28 03:41:06;;;;;;;20.15;18.63;;;;;;;;;;5059952;28;20303;-80
2024/01/28 03:43:33;;;;;;;18.63;17.50;;;;;;;;;;5060267;28;20560;-80
2024/01/28 03:46:00;;;;;;;19.50;18.00;;;;;;;;;;5059162;28;20227;-82
2024/01/28 03:48:28;;;;;;;20.50;19.00;;;;;;;;;;5059546;28;20254;-82
2024/01/28 03:50:56;;;;;;;19.50;18.13;;;;;;;;;;5059953;28;20205;-81
2024/01/28 03:53:23;;;;;;;19.58;18.27;;;;;;;;;;5059595;28;20271;-81
2024/01/28 03:55:50;;;;;;;18.75;17.45;;;;;;;;;;5059954;28;20263;-81
2024/01/28 03:58:17;;;;;;;18.60;17.45;;;;;;;;;;5059512;28;20231;-82
2024/01/28 04:00:44;;;;;;;19.65;18.17;;;;;;;;;;5059042;28;20228;-80
2024/01/28 04:03:11;;;;;;;18.60;17.40;;;;;;;;;;5059370;28;20200;-82
2024/01/28 04:05:38;;;;;;;18.60;17.50;;;;;;;;;;5059195;28;20231;-81
2024/01/28 04:08:10;;;;;;;19.85;18.38;;;;;;;;;;5059012;28;20222;-80
2024/01/28 04:10:37;;;;;;;21.77;19.92;;;;;;;;;;5059432;28;20284;-80
2024/01/28 04:13:04;;;;;;;20.23;18.52;;;;;;;;;;5059646;28;20231;-82
2024/01/28 04:15:31;;;;;;;19.85;18.27;;;;;;;;;;5059139;28;20212;-80
2024/01/28 04:17:58;;;;;;;19.98;18.52;;;;;;;;;;5058602;28;20298;-81
2024/01/28 04:20:25;;;;;;;19.40;18.27;;;;;;;;;;5059953;28;20243;-81
2024/01/28 04:22:52;;;;;;;19.00;17.63;;;;;;;;;;5058877;28;20204;-81
2024/01/28 04:25:20;;;;;;;19.45;18.13;;;;;;;;;;5059058;28;20638;-83
2024/01/28 04:27:47;;;;;;;18.95;17.65;;;;;;;;;;5058629;28;20216;-81
2024/01/28 04:30:17;;;;;;;19.95;18.75;;;;;;;;;;5059111;28;20283;-80
2024/01/28 04:32:44;;;;;;;20.63;19.20;;;;;;;;;;5059678;28;20204;-80
2024/01/28 04:35:12;;;;;;;19.30;17.95;;;;;;;;;;5058583;28;20204;-82
2024/01/28 04:37:39;;;;;;;19.23;18.08;;;;;;;;;;5058760;28;20359;-82
2024/01/28 04:40:06;;;;;;;19.88;18.67;;;;;;;;;;5058923;28;20255;-81
2024/01/28 04:42:35;;;;;;;19.15;17.85;;;;;;;;;;5058691;28;20262;-81
2024/01/28 04:45:02;;;;;;;19.25;18.05;;;;;;;;;;5058993;28;20200;-80
2024/01/28 04:47:29;;;;;;;18.73;17.63;;;;;;;;;;5058754;28;20199;-80
2024/01/28 04:49:56;;;;;;;19.05;17.90;;;;;;;;;;5059083;28;20220;-80
2024/01/28 04:52:23;;;;;;;18.80;17.80;;;;;;;;;;5058588;28;20204;-82
2024/01/28 04:54:50;;;;;;;20.02;18.75;;;;;;;;;;5058406;28;20212;-82
2024/01/28 04:57:17;;;;;;;19.80;18.25;;;;;;;;;;5057630;28;20265;-80
2024/01/28 04:59:46;;;;;;;19.63;18.33;;;;;;;;;;5058404;28;20278;-81
2024/01/28 05:02:13;;;;;;;19.70;18.60;;;;;;;;;;5058761;28;20266;-81
2024/01/28 05:04:40;;;;;;;19.33;18.23;;;;;;;;;;5060997;28;20203;-82
2024/01/28 05:07:07;;;;;;;19.80;18.65;;;;;;;;;;5074808;28;20207;-81
2024/01/28 05:09:34;;;;;;;19.42;18.15;;;;;;;;;;5079116;28;20236;-82
2024/01/28 05:12:01;;;;;;;19.98;18.63;;;;;;;;;;5077852;28;20639;-82
2024/01/28 05:14:28;;;;;;;18.40;17.50;;;;;;;;;;5078105;28;20725;-82
2024/01/28 05:16:58;;;;;;;19.05;17.75;;;;;;;;;;5077392;28;20281;-80
2024/01/28 05:19:25;;;;;;;18.85;17.75;;;;;;;;;;5078768;28;20304;-82
2024/01/28 05:21:53;;;;;;;19.27;18.00;;;;;;;;;;5078366;28;20215;-81
2024/01/28 05:24:20;;;;;;;18.65;17.60;;;;;;;;;;5078985;28;20199;-81
2024/01/28 05:26:48;;;;;;;19.40;18.15;;;;;;;;;;5078468;28;20199;-80
2024/01/28 05:29:15;;;;;;;20.40;18.95;;;;;;;;;;5083527;28;20245;-82
2024/01/28 05:31:42;;;;;;;19.98;18.55;;;;;;;;;;5086596;28;20250;-83
2024/01/28 05:34:10;;;;;;;19.23;18.23;;;;;;;;;;5067628;28;20736;-83
2024/01/28 05:36:38;;;;;;;19.75;18.65;;;;;;;;;;5062582;28;20278;-82
2024/01/28 05:39:05;;;;;;;20.25;18.75;;;;;;;;;;5061487;28;20262;-82
2024/01/28 05:41:32;;;;;;;19.95;18.33;;;;;;;;;;5079079;28;20261;-81
2024/01/28 05:43:59;;;;;;;18.63;17.52;;;;;;;;;;5080758;28;20207;-82
2024/01/28 05:46:26;;;;;;;19.33;18.27;;;;;;;;;;5079758;28;20204;-82
2024/01/28 05:48:54;;;;;;;20.88;18.67;;;;;;;;;;5078099;28;20313;-82
2024/01/28 05:51:22;;;;;;;19.45;18.40;;;;;;;;;;5078984;28;20212;-80
2024/01/28 05:53:49;;;;;;;18.83;17.90;;;;;;;;;;5078411;28;20271;-81
2024/01/28 05:56:16;;;;;;;20.08;18.58;;;;;;;;;;5077638;28;20230;-80
2024/01/28 05:58:43;;;;;;;19.65;18.30;;;;;;;;;;5077608;28;20902;-81
2024/01/28 06:01:12;;;;;;;18.73;17.60;;;;;;;;;;5078214;28;20232;-82
2024/01/28 06:03:40;;;;;;;19.85;18.33;;;;;;;;;;5075580;28;20215;-83
2024/01/28 06:06:07;;;;;;;18.73;17.80;;;;;;;;;;5058310;28;20643;-80
2024/01/28 06:08:35;;;;;;;18.90;17.83;;;;;;;;;;5058106;28;20855;-82
2024/01/28 06:11:02;;;;;;;18.77;17.77;;;;;;;;;;5058862;28;20196;-83
2024/01/28 06:13:29;;;;;;;19.98;18.65;;;;;;;;;;5058751;28;20208;-82
2024/01/28 06:15:56;;;;;;;19.65;18.23;;;;;;;;;;5058709;28;20204;-83
2024/01/28 06:18:23;;;;;;;19.48;17.98;;;;;;;;;;5058138;28;20270;-81
2024/01/28 06:20:51;;;;;;;18.50;17.50;;;;;;;;;;5058074;28;20515;-82
2024/01/28 06:23:18;;;;;;;19.70;18.35;;;;;;;;;;5059051;28;20211;-83
2024/01/28 06:25:46;;;;;;;19.77;18.50;;;;;;;;;;5061535;28;20208;-82
2024/01/28 06:28:14;;;;;;;20.25;18.50;;;;;;;;;;5061715;28;20200;-83
2024/01/28 06:30:41;;;;;;;19.85;18.40;;;;;;;;;;5062344;28;20227;-80
2024/01/28 06:33:08;;;;;;;20.35;19.25;;;;;;;;;;5063088;28;20638;-81
2024/01/28 06:35:35;;;;;;;21.55;19.58;;;;;;;;;;5061896;28;20212;-81
2024/01/28 06:38:02;;;;;;;20.92;19.42;;;;;;;;;;5072171;28;20257;-81
2024/01/28 06:40:29;;;;;;;20.50;18.83;;;;;;;;;;5083027;28;20277;-84
2024/01/28 06:42:58;;;;;;;20.33;18.83;;;;;;;;;;5082670;28;20713;-83
2024/01/28 06:45:25;;;;;;;20.17;18.52;;;;;;;;;;5078105;28;20212;-82
2024/01/28 06:47:54;;;;;;;20.02;18.67;;;;;;;;;;5081568;28;20567;-80
2024/01/28 06:50:21;;;;;;;19.25;18.08;;;;;;;;;;5069304;28;20224;-81
2024/01/28 06:52:48;;;;;;;20.75;19.52;;;;;;;;;;5061279;28;20270;-81
2024/01/28 06:55:15;;;;;;;19.52;18.42;;;;;;;;;;5078696;28;20294;-79
2024/01/28 06:57:42;;;;;;;20.10;18.67;;;;;;;;;;5081142;28;20648;-81
2024/01/28 07:00:13;;;;;;;19.23;18.20;;;;;;;;;;5080934;28;20219;-81
2024/01/28 07:02:40;;;;;;;19.05;17.80;;;;;;;;;;5078327;28;20231;-80
2024/01/28 07:05:09;;;;;;;19.75;18.63;;;;;;;;;;5083623;28;20269;-86
2024/01/28 07:07:36;;;;;;;20.95;19.30;;;;;;;;;;5066839;28;20236;-85
2024/01/28 07:10:02;;;;;;;19.63;18.42;;;;;;;;;;5063749;28;20910;-86
2024/01/28 07:12:29;;;;;;;22.15;20.33;;;;;;;;;;5064637;28;20207;-83
2024/01/28 07:14:56;;;;;;;21.02;19.27;;;;;;;;;;5064444;28;20266;-83
2024/01/28 07:17:25;;;;;;;20.08;18.77;;;;;;;;;;5063074;28;20297;-83
2024/01/28 07:19:52;;;;;;;19.40;18.27;;;;;;;;;;5063019;28;20277;-83
2024/01/28 07:22:19;;;;;;;19.58;18.40;;;;;;;;;;5062548;28;20231;-82
2024/01/28 07:24:46;;;;;;;20.45;19.02;;;;;;;;;;5064753;28;20270;-84
2024/01/28 07:27:13;;;;;;;20.48;19.33;;;;;;;;;;5061400;28;20230;-81
2024/01/28 07:29:40;;;;;;;20.75;19.40;;;;;;;;;;5061228;28;20285;-82
2024/01/28 07:32:08;;;;;;;20.13;18.90;;;;;;;;;;5060975;28;20238;-83
2024/01/28 07:34:36;;;;;;;19.73;18.63;;;;;;;;;;5061351;28;20235;-82
2024/01/28 07:37:03;;;;;;;19.58;18.15;;;;;;;;;;5061560;28;20224;-84
2024/01/28 07:39:30;;;;;;;21.13;19.65;;;;;;;;;;5081287;28;20921;-83
2024/01/28 07:41:58;;;;;;;19.80;18.60;;;;;;;;;;5078518;28;20199;-83
2024/01/28 07:44:25;;;;;;;19.98;18.88;;;;;;;;;;5067580;28;20241;-84
2024/01/28 07:46:52;;;;;;;20.38;19.20;;;;;;;;;;5080424;28;20215;-81
2024/01/28 07:49:19;;;;;;;19.30;18.20;;;;;;;;;;5059971;28;20230;-82
2024/01/28 07:51:48;;;;;;;26.15;24.45;;;;;;;;;;5061566;28;20229;-82
2024/01/28 07:54:15;;;;;;;21.92;20.50;;;;;;;;;;5067849;28;20297;-83
2024/01/28 07:56:42;;;;;;;19.83;18.65;;;;;;;;;;5061298;28;20212;-83
2024/01/28 07:59:09;;;;;;;20.05;18.85;;;;;;;;;;5061615;28;20250;-82
2024/01/28 08:01:36;;;;;;;20.55;19.05;;;;;;;;;;5064481;28;20211;-83
2024/01/28 08:04:04;;;;;;;20.92;19.15;;;;;;;;;;5072105;28;20229;-83
2024/01/28 08:06:31;;;;;;;20.80;19.30;;;;;;;;;;5060701;28;20218;-83
2024/01/28 08:09:01;;;;;;;20.00;18.80;;;;;;;;;;5059997;28;20240;-79
2024/01/28 08:11:28;;;;;;;19.73;18.42;;;;;;;;;;5058923;28;20204;-79
2024/01/28 08:13:55;;;;;;;20.02;18.75;;;;;;;;;;5059475;28;20208;-79
2024/01/28 08:16:22;;;;;;;21.30;19.77;;;;;;;;;;5021889;28;1042208;-80
2024/01/28 08:18:49;;;;;;;22.33;20.80;;;;;;;;;;5059669;28;20224;-81
2024/01/28 08:21:16;;;;;;;24.70;22.83;;;;;;;;;;5059296;28;20203;-77
2024/01/28 08:23:43;;;;;;;21.20;19.90;;;;;;;;;;5059299;28;20200;-81
2024/01/28 08:26:12;;;;;;;20.48;19.33;;;;;;;;;;5060287;28;20571;-81
2024/01/28 08:28:39;;;;;;;23.27;21.77;;;;;;;;;;5071589;28;20214;-81
2024/01/28 08:31:06;;;;;;;22.80;21.50;;;;;;;;;;5069319;28;20212;-81
2024/01/28 08:33:33;;;;;;;23.63;22.15;;;;;;;;;;5060624;28;20204;-81
2024/01/28 08:36:00;;;;;;;24.15;22.05;;;;;;;;;;5060606;28;20208;-81
2024/01/28 08:38:29;;;;;;;56.35;41.10;;;;;;;;;;5060351;28;20252;-82
2024/01/28 08:40:56;;;;;;;48.05;38.00;;;;;;;;;;5061585;28;20215;-81
2024/01/28 08:43:24;;;;;;;40.28;28.60;;;;;;;;;;5060861;28;20204;-80
2024/01/28 08:45:51;;;;;;;27.90;25.85;;;;;;;;;;5060402;28;20216;-81
2024/01/28 08:48:18;;;;;;;21.02;19.35;;;;;;;;;;5058827;28;20204;-81
2024/01/28 08:50:45;;;;;;;25.77;23.88;;;;;;;;;;5068408;28;20277;-81
2024/01/28 08:53:12;;;;;;;23.73;22.02;;;;;;;;;;5064349;28;20215;-80
2024/01/28 08:55:39;;;;;;;21.40;19.90;;;;;;;;;;5060452;28;20212;-80
2024/01/28 08:58:06;;;;;;;22.63;20.88;;;;;;;;;;5059804;28;20246;-83
2024/01/28 09:00:35;;;;;;;31.02;28.52;;;;;;;;;;5059268;28;20227;-83
2024/01/28 09:03:02;;;;;;;23.90;22.27;;;;;;;;;;5059656;28;20208;-84
2024/01/28 09:05:29;;;;;;;23.05;21.65;;;;;;;;;;5060589;28;20234;-81
2024/01/28 09:07:56;;;;;;;24.40;22.80;;;;;;;;;;5059211;28;20214;-80
2024/01/28 09:10:24;;;;;;;21.70;20.27;;;;;;;;;;5059473;28;20328;-81
2024/01/28 09:12:51;;;;;;;24.30;22.60;;;;;;;;;;5057575;28;20208;-83
2024/01/28 09:15:18;;;;;;;21.98;20.70;;;;;;;;;;5068838;28;20911;-82
2024/01/28 09:17:46;;;;;;;23.02;21.52;;;;;;;;;;5073905;28;20223;-78
2024/01/28 09:20:13;;;;;;;23.27;21.73;;;;;;;;;;5074364;28;20227;-77
2024/01/28 09:22:41;;;;;;;21.10;20.00;;;;;;;;;;5073020;28;20234;-80
2024/01/28 09:25:08;;;;;;;23.15;21.65;;;;;;;;;;5068305;28;20255;-80
2024/01/28 09:27:35;;;;;;;22.67;21.08;;;;;;;;;;5052225;28;20250;-79
2024/01/28 09:30:02;;;;;;;23.63;21.90;;;;;;;;;;5054705;28;20307;-78
2024/01/28 09:32:29;;;;;;;21.48;20.10;;;;;;;;;;5059773;28;20721;-77
2024/01/28 09:34:58;;;;;;;21.50;20.30;;;;;;;;;;5065394;28;20200;-81
2024/01/28 09:37:25;;;;;;;31.13;26.63;;;;;;;;;;5056663;28;20966;-78
2024/01/28 09:39:52;;;;;;;23.83;22.25;;;;;;;;;;5069732;28;20250;-81
2024/01/28 09:42:24;;;;;;;22.80;20.85;;;;;;;;;;5054628;28;20208;-80
2024/01/28 09:44:51;;;;;;;23.83;22.30;;;;;;;;;;5054268;28;20184;-79
2024/01/28 09:47:20;;;;;;;23.75;22.02;;;;;;;;;;5069525;28;20207;-80
2024/01/28 09:49:48;;;;;;;22.55;21.25;;;;;;;;;;5078817;28;20231;-79
2024/01/28 09:52:17;;;;;;;31.73;28.75;;;;;;;;;;5060955;28;20206;-81
2024/01/28 09:54:45;;;;;;;24.63;22.65;;;;;;;;;;5071297;28;20216;-84
2024/01/28 09:57:12;;;;;;;25.63;23.60;;;;;;;;;;5059503;28;20263;-83
2024/01/28 09:59:40;;;;;;;27.83;25.35;;;;;;;;;;5070669;28;20249;-82
2024/01/28 10:02:07;;;;;;;42.42;35.72;;;;;;;;;;5073900;28;20566;-76
2024/01/28 10:04:35;;;;;;;27.23;24.90;;;;;;;;;;5074946;28;20207;-83
2024/01/28 10:07:03;;;;;;;24.70;22.90;;;;;;;;;;5079811;28;20204;-82
2024/01/28 10:09:32;;;;;;;32.80;29.90;;;;;;;;;;5078659;28;20297;-82
2024/01/28 10:12:00;;;;;;;29.95;27.70;;;;;;;;;;5054573;28;20224;-81
2024/01/28 10:14:27;;;;;;;25.10;23.50;;;;;;;;;;5053942;28;20212;-80
2024/01/28 10:16:55;;;;;;;31.80;29.45;;;;;;;;;;5052742;28;20219;-79
2024/01/28 10:19:23;;;;;;;24.15;22.70;;;;;;;;;;5052145;28;20335;-81
2024/01/28 10:21:50;;;;;;;21.85;20.55;;;;;;;;;;5052802;28;20640;-78
2024/01/28 10:24:19;;;;;;;21.50;20.30;;;;;;;;;;5050779;28;20266;-77
2024/01/28 10:26:48;;;;;;;21.67;20.15;;;;;;;;;;5050044;28;20262;-77
2024/01/28 10:29:15;;;;;;;23.60;22.02;;;;;;;;;;5050796;28;20227;-77
2024/01/28 10:31:42;;;;;;;21.77;20.25;;;;;;;;;;5050761;28;20615;-77
2024/01/28 10:34:10;;;;;;;21.52;20.33;;;;;;;;;;5050357;28;20793;-78
2024/01/28 10:36:39;;;;;;;21.42;20.05;;;;;;;;;;5050556;28;20269;-77
2024/01/28 10:39:08;;;;;;;22.02;20.73;;;;;;;;;;5065083;28;20231;-77
2024/01/28 10:41:37;;;;;;;20.40;19.30;;;;;;;;;;5044342;28;20294;-78
2024/01/28 10:44:07;;;;;;;21.40;20.20;;;;;;;;;;5061154;28;20212;-78
2024/01/28 10:46:37;;;;;;;21.25;19.83;;;;;;;;;;5071433;28;20207;-78
2024/01/28 10:49:05;;;;;;;21.75;20.25;;;;;;;;;;5058443;28;20311;-78
2024/01/28 10:51:33;;;;;;;22.60;20.77;;;;;;;;;;5051385;28;20738;-78
2024/01/28 10:54:01;;;;;;;21.08;19.88;;;;;;;;;;5050586;28;20212;-78
2024/01/28 10:56:28;;;;;;;22.92;21.05;;;;;;;;;;5050978;28;20205;-78
2024/01/28 10:58:55;;;;;;;22.88;21.45;;;;;;;;;;5051615;28;20281;-78
2024/01/28 11:01:24;;;;;;;22.33;20.70;;;;;;;;;;5069911;28;20211;-78
2024/01/28 11:03:51;;;;;;;22.10;20.13;;;;;;;;;;5071069;28;20204;-78
2024/01/28 11:06:19;;;;;;;19.95;18.85;;;;;;;;;;5070374;28;20213;-78
2024/01/28 11:08:46;;;;;;;21.33;19.70;;;;;;;;;;5070528;28;20265;-78
2024/01/28 11:11:13;;;;;;;21.70;20.10;;;;;;;;;;5073170;28;20230;-79
2024/01/28 11:13:40;;;;;;;20.50;19.30;;;;;;;;;;5074271;28;20675;-78
2024/01/28 11:16:08;;;;;;;21.27;19.98;;;;;;;;;;5073989;28;20461;-79
2024/01/28 11:18:36;;;;;;;21.98;20.67;;;;;;;;;;5074212;28;20675;-78
2024/01/28 11:21:11;;;;;;;21.80;20.25;;;;;;;;;;5074837;28;20999;-78
2024/01/28 11:23:43;;;;;;;21.70;20.50;;;;;;;;;;5074777;28;20910;-78
2024/01/28 11:26:13;;;;;;;22.02;20.27;;;;;;;;;;5073705;28;20535;-77
2024/01/28 11:28:46;;;;;;;22.55;21.20;;;;;;;;;;5074833;28;20235;-78
2024/01/28 11:31:20;;;;;;;21.70;20.30;;;;;;;;;;5074193;28;20651;-78
2024/01/28 11:33:48;;;;;;;21.85;20.55;;;;;;;;;;5075369;28;20883;-78
2024/01/28 11:36:21;;;;;;;23.87;21.87;;;;;;;;;;5081149;28;20701;-77
2024/01/28 11:38:50;;;;;;;24.58;22.77;;;;;;;;;;5061277;28;20465;-77
2024/01/28 11:41:18;;;;;;;23.30;21.97;;;;;;;;;;5055606;28;20266;-77
2024/01/28 11:43:45;;;;;;;22.33;20.87;;;;;;;;;;5066446;28;20454;-77
2024/01/28 11:46:13;;;;;;;22.03;20.70;;;;;;;;;;5053210;28;20514;-77
2024/01/28 11:48:41;;;;;;;22.10;20.80;;;;;;;;;;5053370;28;20780;-77
2024/01/28 11:51:10;;;;;;;21.20;20.10;;;;;;;;;;5054390;28;20461;-78
2024/01/28 11:53:37;;;;;;;22.07;20.67;;;;;;;;;;5063398;28;20460;-77
2024/01/28 11:56:08;;;;;;;24.00;22.57;;;;;;;;;;5072627;28;20456;-77
2024/01/28 11:58:35;;;;;;;21.03;19.83;;;;;;;;;;5072401;28;20989;-78
2024/01/28 12:01:02;;;;;;;22.20;20.90;;;;;;;;;;5073111;28;20430;-77
2024/01/28 12:03:29;;;;;;;23.00;21.63;;;;;;;;;;5072749;28;20454;-77
2024/01/28 12:05:57;;;;;;;21.57;20.20;;;;;;;;;;5074062;28;20942;-78
2024/01/28 12:08:29;;;;;;;22.70;21.40;;;;;;;;;;5072264;28;20442;-77
2024/01/28 12:10:57;;;;;;;21.90;20.60;;;;;;;;;;5072693;28;20833;-77
2024/01/28 12:13:24;;;;;;;20.57;19.47;;;;;;;;;;5074097;28;20458;-81
2024/01/28 12:15:51;;;;;;;21.33;20.00;;;;;;;;;;5074455;28;20507;-77
2024/01/28 12:18:18;;;;;;;22.33;21.10;;;;;;;;;;5072859;28;20480;-79
2024/01/28 12:20:51;;;;;;;21.87;20.60;;;;;;;;;;5073490;28;20868;-77
2024/01/28 12:23:19;;;;;;;22.03;20.73;;;;;;;;;;5054200;28;20485;-78
2024/01/28 12:25:47;;;;;;;22.30;21.10;;;;;;;;;;5053471;28;20853;-77
2024/01/28 12:28:14;;;;;;;22.47;21.17;;;;;;;;;;5057483;28;20866;-80
2024/01/28 12:30:41;;;;;;;23.30;21.93;;;;;;;;;;5059302;28;20488;-80
2024/01/28 12:33:09;;;;;;;22.63;21.27;;;;;;;;;;5055029;28;20446;-76
2024/01/28 12:35:36;;;;;;;22.70;21.30;;;;;;;;;;5051477;28;20474;-76
2024/01/28 12:38:03;;;;;;;22.73;21.43;;;;;;;;;;5051257;28;20447;-77
2024/01/28 12:40:30;;;;;;;21.80;20.60;;;;;;;;;;5055971;28;20547;-79
2024/01/28 12:42:58;;;;;;;22.23;21.03;;;;;;;;;;5068211;28;20902;-79
2024/01/28 12:45:25;;;;;;;21.80;20.70;;;;;;;;;;5072488;28;20445;-79
2024/01/28 12:47:52;;;;;;;22.50;21.20;;;;;;;;;;5071716;28;20933;-77
2024/01/28 12:50:20;;;;;;;22.80;21.40;;;;;;;;;;5072460;28;20436;-76
2024/01/28 12:52:47;;;;;;;22.47;21.03;;;;;;;;;;5072387;28;20450;-76
2024/01/28 12:55:14;;;;;;;22.30;20.90;;;;;;;;;;5072253;28;20833;-77
2024/01/28 12:57:42;;;;;;;36.97;33.17;;;;;;;;;;5062560;28;20481;-77
2024/01/28 13:00:14;;;;;;;26.20;24.47;;;;;;;;;;5059041;28;20505;-76
2024/01/28 13:02:41;;;;;;;23.73;22.13;;;;;;;;;;5052138;28;20558;-77
2024/01/28 13:05:10;;;;;;;22.60;21.40;;;;;;;;;;5051141;28;21232;-77
2024/01/28 13:07:37;;;;;;;22.80;21.50;;;;;;;;;;5051836;28;20439;-77
2024/01/28 13:10:07;;;;;;;23.13;21.80;;;;;;;;;;5051762;28;20475;-76
2024/01/28 13:12:38;;;;;;;23.50;22.23;;;;;;;;;;5052966;28;20453;-80
2024/01/28 13:15:07;;;;;;;22.70;21.37;;;;;;;;;;5052517;28;20903;-76
2024/01/28 13:17:38;;;;;;;29.47;27.10;;;;;;;;;;5050816;28;20520;-77
2024/01/28 13:20:07;;;;;;;23.40;22.00;;;;;;;;;;5051823;28;20495;-77
2024/01/28 13:22:34;;;;;;;23.50;22.20;;;;;;;;;;5051854;28;20454;-77
2024/01/28 13:25:01;;;;;;;22.83;21.53;;;;;;;;;;5053620;28;20488;-78
2024/01/28 13:27:29;;;;;;;23.53;21.83;;;;;;;;;;5071060;28;20441;-77
2024/01/28 13:29:56;;;;;;;22.73;21.40;;;;;;;;;;5071995;28;20465;-76
2024/01/28 13:32:24;;;;;;;22.87;21.37;;;;;;;;;;5071478;28;20940;-77
2024/01/28 13:34:52;;;;;;;21.93;20.70;;;;;;;;;;5070922;28;20930;-76
2024/01/28 13:37:19;;;;;;;22.13;20.93;;;;;;;;;;5071239;28;20495;-77
2024/01/28 13:39:46;;;;;;;22.40;21.10;;;;;;;;;;5071092;28;20981;-78
2024/01/28 13:42:13;;;;;;;23.50;22.10;;;;;;;;;;5071525;28;20450;-77
2024/01/28 13:44:40;;;;;;;23.17;21.90;;;;;;;;;;5071425;28;20534;-77
2024/01/28 13:47:08;;;;;;;23.17;21.77;;;;;;;;;;5070863;28;20454;-76
2024/01/28 13:49:35;;;;;;;23.67;22.27;;;;;;;;;;5054784;28;20498;-77
2024/01/28 13:52:04;;;;;;;24.87;23.37;;;;;;;;;;5051175;28;20435;-76
2024/01/28 13:54:31;;;;;;;22.97;21.60;;;;;;;;;;5051046;28;21227;-77
2024/01/28 13:56:59;;;;;;;23.03;21.73;;;;;;;;;;5052310;28;20455;-79
2024/01/28 13:59:26;;;;;;;22.77;21.47;;;;;;;;;;5052730;28;20465;-79
2024/01/28 14:01:53;;;;;;;22.77;21.47;;;;;;;;;;5052912;28;20450;-79
2024/01/28 14:04:20;;;;;;;23.23;21.90;;;;;;;;;;5053016;28;20446;-80
2024/01/28 14:06:47;;;;;;;22.93;21.63;;;;;;;;;;5052083;28;20508;-79
2024/01/28 14:09:17;;;;;;;23.90;22.20;;;;;;;;;;5052511;28;20497;-80
2024/01/28 14:11:44;;;;;;;22.33;20.83;;;;;;;;;;5052544;28;20790;-79
2024/01/28 14:14:11;;;;;;;22.60;21.20;;;;;;;;;;5052347;28;20451;-78
2024/01/28 14:16:38;;;;;;;22.60;21.27;;;;;;;;;;5051621;28;20529;-80
2024/01/28 14:19:05;;;;;;;21.77;20.57;;;;;;;;;;5061183;28;20489;-79